Time;durP1;ratioP1;P1;durP2;ratioP2;P2;SDS_P1;SDS_P2;PMS_P1;PMS_P2;Temp;Humidity;BMP_temperature;BMP_pressure;BME280_temperature;BME280_humidity;BME280_pressure;Samples;Min_cycle;Max_cycle;Signal;HPM_P1;HPM_P2
2023/07/19 00:01:25;;;;;;;;;3.75;3.75;;;;;;;;5100328;27;45407;-49
2023/07/19 00:03:50;;;;;;;;;5.75;3.75;;;;;;;;5099597;27;45447;-46
2023/07/19 00:06:15;;;;;;;;;4.25;3.00;;;;;;;;5099710;27;45462;-46
2023/07/19 00:08:41;;;;;;;;;2.00;2.00;;;;;;;;5099806;27;45416;-42
2023/07/19 00:11:06;;;;;;;;;3.75;3.75;;;;;;;;5099767;27;45268;-42
2023/07/19 00:13:31;;;;;;;;;5.75;3.75;;;;;;;;5098514;27;45383;-41
2023/07/19 00:15:56;;;;;;;;;4.75;3.75;;;;;;;;5099288;27;45496;-43
2023/07/19 00:18:22;;;;;;;;;4.00;3.00;;;;;;;;5081266;27;45326;-42
2023/07/19 00:20:47;;;;;;;;;2.75;2.25;;;;;;;;5099581;27;45322;-42
2023/07/19 00:23:12;;;;;;;;;3.50;3.25;;;;;;;;5099411;27;45423;-40
2023/07/19 00:25:37;;;;;;;;;2.50;2.50;;;;;;;;5097798;27;45353;-42
2023/07/19 00:28:02;;;;;;;;;3.25;3.25;;;;;;;;5099348;27;45476;-43
2023/07/19 00:30:28;;;;;;;;;4.50;3.50;;;;;;;;5099764;27;45178;-42
2023/07/19 00:32:53;;;;;;;;;2.50;2.50;;;;;;;;5098941;27;45333;-46
2023/07/19 00:35:19;;;;;;;;;2.75;2.25;;;;;;;;5099107;27;45306;-42
2023/07/19 00:37:44;;;;;;;;;2.00;2.00;;;;;;;;5099097;27;45294;-43
2023/07/19 00:40:09;;;;;;;;;7.25;2.00;;;;;;;;5099292;27;45303;-41
2023/07/19 00:42:34;;;;;;;;;3.25;2.75;;;;;;;;5098999;27;46178;-46
2023/07/19 00:45:00;;;;;;;;;2.50;2.50;;;;;;;;5098903;27;45148;-44
2023/07/19 00:47:25;;;;;;;;;3.00;2.00;;;;;;;;5099429;27;45350;-46
2023/07/19 00:49:50;;;;;;;;;3.00;2.25;;;;;;;;5099272;27;45288;-46
2023/07/19 00:52:16;;;;;;;;;3.00;3.00;;;;;;;;5098731;27;46392;-45
2023/07/19 00:54:42;;;;;;;;;3.25;3.25;;;;;;;;5098763;27;45366;-46
2023/07/19 00:57:07;;;;;;;;;5.25;3.25;;;;;;;;5099044;27;45367;-46
2023/07/19 00:59:33;;;;;;;;;4.25;3.00;;;;;;;;5099167;27;45411;-45
2023/07/19 01:01:59;;;;;;;;;2.25;2.25;;;;;;;;5080275;27;46344;-44
2023/07/19 01:04:29;;;;;;;;;1.50;1.50;;;;;;;;5098586;27;45328;-45
2023/07/19 01:06:54;;;;;;;;;6.80;4.00;;;;;;;;5098906;27;46083;-48
2023/07/19 01:09:20;;;;;;;;;5.50;3.50;;;;;;;;5098433;27;45258;-45
2023/07/19 01:11:45;;;;;;;;;3.75;3.25;;;;;;;;5098600;27;46162;-43
2023/07/19 01:14:10;;;;;;;;;4.00;3.25;;;;;;;;5098607;27;45342;-43
2023/07/19 01:16:36;;;;;;;;;3.00;2.00;;;;;;;;5098718;27;45434;-42
2023/07/19 01:19:02;;;;;;;;;0.00;0.00;;;;;;;;5099055;27;45777;-45
2023/07/19 01:21:27;;;;;;;;;4.00;4.00;;;;;;;;5098293;27;45414;-43
2023/07/19 01:23:52;;;;;;;;;2.75;2.75;;;;;;;;5098365;27;45363;-43
2023/07/19 01:26:17;;;;;;;;;4.00;2.00;;;;;;;;5098281;27;45275;-42
2023/07/19 01:28:43;;;;;;;;;4.25;3.00;;;;;;;;5098323;27;45389;-41
2023/07/19 01:31:10;;;;;;;;;3.50;2.00;;;;;;;;5097873;27;46238;-41
2023/07/19 01:33:36;;;;;;;;;5.60;2.00;;;;;;;;5098179;27;45360;-42
2023/07/19 01:36:01;;;;;;;;;4.00;2.75;;;;;;;;5098461;27;45306;-43
2023/07/19 01:38:26;;;;;;;;;3.75;2.00;;;;;;;;5098540;27;45512;-41
2023/07/19 01:40:51;;;;;;;;;3.25;2.00;;;;;;;;5097828;27;45397;-42
2023/07/19 01:43:16;;;;;;;;;4.00;2.00;;;;;;;;5097965;27;45505;-39
2023/07/19 01:45:42;;;;;;;;;4.25;2.00;;;;;;;;5079377;27;45553;-40
2023/07/19 01:48:07;;;;;;;;;3.00;2.25;;;;;;;;5079929;27;45425;-41
2023/07/19 01:50:32;;;;;;;;;5.75;3.50;;;;;;;;5097799;27;46208;-40
2023/07/19 01:52:58;;;;;;;;;3.50;2.75;;;;;;;;5098010;27;45212;-40
2023/07/19 01:55:23;;;;;;;;;3.00;3.00;;;;;;;;5098143;27;45247;-39
2023/07/19 01:57:48;;;;;;;;;5.25;3.00;;;;;;;;5098410;27;45249;-46
2023/07/19 02:00:14;;;;;;;;;3.25;2.75;;;;;;;;5097852;27;47035;-44
2023/07/19 02:02:39;;;;;;;;;2.00;2.00;;;;;;;;5097764;27;45222;-47
2023/07/19 02:05:04;;;;;;;;;1.50;1.50;;;;;;;;5079276;27;45370;-46
2023/07/19 02:07:29;;;;;;;;;4.00;3.00;;;;;;;;5097969;27;45512;-44
2023/07/19 02:09:54;;;;;;;;;2.50;2.50;;;;;;;;5097486;27;46315;-44
2023/07/19 02:12:20;;;;;;;;;4.00;2.25;;;;;;;;5097675;27;45208;-42
2023/07/19 02:14:45;;;;;;;;;3.00;2.00;;;;;;;;5097746;27;45314;-40
2023/07/19 02:17:10;;;;;;;;;1.00;1.00;;;;;;;;5097323;27;45381;-44
2023/07/19 02:19:35;;;;;;;;;7.00;3.00;;;;;;;;5097239;27;46171;-42
2023/07/19 02:22:01;;;;;;;;;1.25;1.25;;;;;;;;5099404;27;45219;-42
2023/07/19 02:24:26;;;;;;;;;2.75;2.75;;;;;;;;5101271;27;45302;-41
2023/07/19 02:26:51;;;;;;;;;1.00;1.00;;;;;;;;5101333;27;45513;-43
2023/07/19 02:29:16;;;;;;;;;3.50;3.50;;;;;;;;5082740;27;47451;-41
2023/07/19 02:31:41;;;;;;;;;3.50;2.00;;;;;;;;5100984;27;45326;-43
2023/07/19 02:34:07;;;;;;;;;2.50;1.25;;;;;;;;5101180;27;45227;-46
2023/07/19 02:36:34;;;;;;;;;4.00;3.00;;;;;;;;5101367;27;45561;-40
2023/07/19 02:38:59;;;;;;;;;4.00;3.00;;;;;;;;5082426;27;46192;-42
2023/07/19 02:41:24;;;;;;;;;3.00;2.25;;;;;;;;5100525;27;45301;-45
2023/07/19 02:43:49;;;;;;;;;3.50;2.25;;;;;;;;5101038;27;45359;-42
2023/07/19 02:46:14;;;;;;;;;1.75;1.75;;;;;;;;5100951;27;45443;-46
2023/07/19 02:48:40;;;;;;;;;3.00;3.00;;;;;;;;5100807;27;45411;-46
2023/07/19 02:51:05;;;;;;;;;3.00;3.00;;;;;;;;5100742;27;45305;-46
2023/07/19 02:53:30;;;;;;;;;2.00;2.00;;;;;;;;5100887;27;45384;-42
2023/07/19 02:55:55;;;;;;;;;4.50;3.00;;;;;;;;5100998;27;45361;-42
2023/07/19 02:58:21;;;;;;;;;2.00;2.00;;;;;;;;5100419;27;46297;-38
2023/07/19 03:00:46;;;;;;;;;2.50;2.50;;;;;;;;5100843;27;45297;-41
2023/07/19 03:03:12;;;;;;;;;2.00;2.00;;;;;;;;5100852;27;45287;-42
2023/07/19 03:05:40;;;;;;;;;2.25;2.25;;;;;;;;5082455;27;45460;-40
2023/07/19 03:08:05;;;;;;;;;4.00;2.00;;;;;;;;5099734;27;46214;-43
2023/07/19 03:10:31;;;;;;;;;5.50;4.75;;;;;;;;5100401;27;45297;-42
2023/07/19 03:12:56;;;;;;;;;2.25;2.25;;;;;;;;5100746;27;45388;-40
2023/07/19 03:15:21;;;;;;;;;3.50;3.50;;;;;;;;5100715;27;45429;-45
2023/07/19 03:17:46;;;;;;;;;2.50;2.25;;;;;;;;5100316;27;46159;-46
2023/07/19 03:20:11;;;;;;;;;3.00;3.00;;;;;;;;5100442;27;45333;-44
2023/07/19 03:22:37;;;;;;;;;3.75;3.75;;;;;;;;5100426;27;45428;-42
2023/07/19 03:25:02;;;;;;;;;4.25;4.00;;;;;;;;5100739;27;45321;-46
2023/07/19 03:27:27;;;;;;;;;3.00;2.25;;;;;;;;5100054;27;47139;-44
2023/07/19 03:29:53;;;;;;;;;5.00;4.00;;;;;;;;5100117;27;45314;-46
2023/07/19 03:32:18;;;;;;;;;5.25;3.75;;;;;;;;5099648;27;45304;-43
2023/07/19 03:34:43;;;;;;;;;7.75;4.75;;;;;;;;5100532;27;45323;-42
2023/07/19 03:37:08;;;;;;;;;4.00;2.50;;;;;;;;5100029;27;46148;-40
2023/07/19 03:39:33;;;;;;;;;3.75;2.00;;;;;;;;5100023;27;45338;-42
2023/07/19 03:41:59;;;;;;;;;3.00;3.00;;;;;;;;5100315;27;45390;-39
2023/07/19 03:44:25;;;;;;;;;4.00;2.25;;;;;;;;5100221;27;45513;-41
2023/07/19 03:46:50;;;;;;;;;2.00;2.00;;;;;;;;5099937;27;46477;-41
2023/07/19 03:49:15;;;;;;;;;3.00;3.00;;;;;;;;5099970;27;45437;-44
2023/07/19 03:51:40;;;;;;;;;2.75;2.00;;;;;;;;5100000;27;45211;-41
2023/07/19 03:54:05;;;;;;;;;2.00;2.00;;;;;;;;5064937;27;45419;-41
2023/07/19 03:56:31;;;;;;;;;4.00;1.00;;;;;;;;5099599;27;45412;-40
2023/07/19 03:58:56;;;;;;;;;6.25;1.00;;;;;;;;5099615;27;45453;-42
2023/07/19 04:01:21;;;;;;;;;2.00;2.00;;;;;;;;5099900;27;45337;-41
2023/07/19 04:03:46;;;;;;;;;6.25;2.25;;;;;;;;5100153;27;45354;-42
2023/07/19 04:06:11;;;;;;;;;1.25;1.25;;;;;;;;5099417;27;46144;-41
2023/07/19 04:08:36;;;;;;;;;1.50;1.50;;;;;;;;5099489;27;45523;-44
2023/07/19 04:11:02;;;;;;;;;5.00;2.25;;;;;;;;5099504;27;45293;-46
2023/07/19 04:13:27;;;;;;;;;5.50;1.00;;;;;;;;5099695;27;45544;-42
2023/07/19 04:15:53;;;;;;;;;2.50;2.00;;;;;;;;5098882;27;45439;-44
2023/07/19 04:18:18;;;;;;;;;1.75;1.75;;;;;;;;5098605;27;45196;-46
2023/07/19 04:20:43;;;;;;;;;2.25;2.00;;;;;;;;5099430;27;45428;-42
2023/07/19 04:23:08;;;;;;;;;1.00;1.00;;;;;;;;5099701;27;45267;-43
2023/07/19 04:25:33;;;;;;;;;4.00;3.00;;;;;;;;5099219;27;45989;-40
2023/07/19 04:27:59;;;;;;;;;1.25;1.25;;;;;;;;5098959;27;45440;-41
2023/07/19 04:30:24;;;;;;;;;2.00;1.75;;;;;;;;5099154;27;45437;-44
2023/07/19 04:32:54;;;;;;;;;2.25;2.25;;;;;;;;5099217;27;45365;-42
2023/07/19 04:35:20;;;;;;;;;1.00;1.00;;;;;;;;5098986;27;45447;-43
2023/07/19 04:37:45;;;;;;;;;1.25;1.25;;;;;;;;5099239;27;45424;-45
2023/07/19 04:40:10;;;;;;;;;1.00;1.00;;;;;;;;5099161;27;45278;-46
2023/07/19 04:42:35;;;;;;;;;1.00;1.00;;;;;;;;5099405;27;45302;-44
2023/07/19 04:45:01;;;;;;;;;0.00;0.00;;;;;;;;5097737;27;45309;-44
2023/07/19 04:47:26;;;;;;;;;2.00;1.75;;;;;;;;5099066;27;45373;-43
2023/07/19 04:49:51;;;;;;;;;3.75;1.00;;;;;;;;5099427;27;45289;-46
2023/07/19 04:52:16;;;;;;;;;1.00;1.00;;;;;;;;5099287;27;45602;-48
2023/07/19 04:54:41;;;;;;;;;1.50;1.50;;;;;;;;5098974;27;47073;-47
2023/07/19 04:57:07;;;;;;;;;1.75;1.75;;;;;;;;5098679;27;45406;-45
2023/07/19 04:59:32;;;;;;;;;1.00;1.00;;;;;;;;5098937;27;45310;-44
2023/07/19 05:01:57;;;;;;;;;2.25;1.00;;;;;;;;5099134;27;45532;-46
2023/07/19 05:04:22;;;;;;;;;2.00;2.00;;;;;;;;5098663;27;47104;-44
2023/07/19 05:06:49;;;;;;;;;2.50;2.50;;;;;;;;5098658;27;45232;-46
2023/07/19 05:09:15;;;;;;;;;2.75;1.00;;;;;;;;5098608;27;45429;-47
2023/07/19 05:11:40;;;;;;;;;1.75;1.75;;;;;;;;5098836;27;45534;-45
2023/07/19 05:14:05;;;;;;;;;2.75;2.50;;;;;;;;5098654;27;45303;-44
2023/07/19 05:16:30;;;;;;;;;1.00;1.00;;;;;;;;5098658;27;45582;-46
2023/07/19 05:18:55;;;;;;;;;1.50;1.00;;;;;;;;5098836;27;45287;-46
2023/07/19 05:21:21;;;;;;;;;2.50;2.00;;;;;;;;5098678;27;45307;-46
2023/07/19 05:23:46;;;;;;;;;1.50;0.00;;;;;;;;5098460;27;46969;-46
2023/07/19 05:26:12;;;;;;;;;2.25;1.00;;;;;;;;5097939;27;45448;-46
2023/07/19 05:28:37;;;;;;;;;1.00;1.00;;;;;;;;5098435;27;45295;-46
2023/07/19 05:31:03;;;;;;;;;4.00;1.00;;;;;;;;5098346;27;45429;-43
2023/07/19 05:33:28;;;;;;;;;4.00;1.00;;;;;;;;5097982;27;45453;-46
2023/07/19 05:35:53;;;;;;;;;0.00;0.00;;;;;;;;5098352;27;45534;-42
2023/07/19 05:38:18;;;;;;;;;2.00;2.00;;;;;;;;5098182;27;45363;-45
2023/07/19 05:40:43;;;;;;;;;3.75;1.75;;;;;;;;5098605;27;45377;-45
2023/07/19 05:43:08;;;;;;;;;3.00;2.00;;;;;;;;5079459;27;45454;-45
2023/07/19 05:45:35;;;;;;;;;4.00;2.25;;;;;;;;5097849;27;45551;-40
2023/07/19 05:48:00;;;;;;;;;2.75;1.00;;;;;;;;5098094;27;45357;-42
2023/07/19 05:50:27;;;;;;;;;1.25;1.25;;;;;;;;5098127;27;45462;-40
2023/07/19 05:52:52;;;;;;;;;1.00;1.00;;;;;;;;5097702;27;46166;-44
2023/07/19 05:55:18;;;;;;;;;2.25;2.00;;;;;;;;5097753;27;45369;-45
2023/07/19 05:57:43;;;;;;;;;4.50;2.00;;;;;;;;5097946;27;45347;-41
2023/07/19 06:00:18;;;;;;;;;2.00;2.00;;;;;;;;5098264;27;45330;-45
2023/07/19 06:02:43;;;;;;;;;3.00;3.00;;;;;;;;5097691;27;46410;-45
2023/07/19 06:05:08;;;;;;;;;4.00;3.00;;;;;;;;5079317;27;45384;-47
2023/07/19 06:07:35;;;;;;;;;2.25;1.50;;;;;;;;5097164;27;45215;-43
2023/07/19 06:10:00;;;;;;;;;1.00;1.00;;;;;;;;5098030;27;45187;-45
2023/07/19 06:12:25;;;;;;;;;1.00;1.00;;;;;;;;5097393;27;46822;-43
2023/07/19 06:14:51;;;;;;;;;4.50;1.25;;;;;;;;5097784;27;45770;-44
2023/07/19 06:17:16;;;;;;;;;1.00;0.75;;;;;;;;5097673;27;45180;-41
2023/07/19 06:19:42;;;;;;;;;0.50;0.50;;;;;;;;5097961;27;45359;-40
2023/07/19 06:22:07;;;;;;;;;2.75;1.00;;;;;;;;5097423;27;46969;-42
2023/07/19 06:24:32;;;;;;;;;1.25;1.25;;;;;;;;5097220;27;45215;-40
2023/07/19 06:26:57;;;;;;;;;1.75;1.75;;;;;;;;5097468;27;45338;-41
2023/07/19 06:29:23;;;;;;;;;2.00;2.00;;;;;;;;5097622;27;45302;-43
2023/07/19 06:31:48;;;;;;;;;0.00;0.00;;;;;;;;5097151;27;46874;-39
2023/07/19 06:34:13;;;;;;;;;1.75;1.75;;;;;;;;5097379;27;45320;-40
2023/07/19 06:36:39;;;;;;;;;2.00;0.25;;;;;;;;5097553;27;45404;-42
2023/07/19 06:39:04;;;;;;;;;0.75;0.75;;;;;;;;5097612;27;45317;-46
2023/07/19 06:41:30;;;;;;;;;2.00;0.00;;;;;;;;5096899;27;45588;-46
2023/07/19 06:43:57;;;;;;;;;22.00;19.00;;;;;;;;5097251;27;45306;-44
2023/07/19 06:46:22;;;;;;;;;3.25;3.25;;;;;;;;5097246;27;45314;-45
2023/07/19 06:48:47;;;;;;;;;1.00;1.00;;;;;;;;5097403;27;45319;-46
2023/07/19 06:51:12;;;;;;;;;2.25;1.00;;;;;;;;5096796;27;45999;-48
2023/07/19 06:53:38;;;;;;;;;2.00;0.25;;;;;;;;5096906;27;45266;-43
2023/07/19 06:56:03;;;;;;;;;0.50;0.50;;;;;;;;5097321;27;45282;-43
2023/07/19 06:58:28;;;;;;;;;0.75;0.75;;;;;;;;5097108;27;45477;-40
2023/07/19 07:00:55;;;;;;;;;0.50;0.00;;;;;;;;5078411;27;45983;-40
2023/07/19 07:03:21;;;;;;;;;0.00;0.00;;;;;;;;5096885;27;45225;-46
2023/07/19 07:05:46;;;;;;;;;1.80;1.00;;;;;;;;5096853;27;45374;-39
2023/07/19 07:08:11;;;;;;;;;1.75;1.75;;;;;;;;5099502;27;45334;-42
2023/07/19 07:10:37;;;;;;;;;1.00;1.00;;;;;;;;5100249;27;45278;-39
2023/07/19 07:13:02;;;;;;;;;1.25;1.25;;;;;;;;5100117;27;45449;-41
2023/07/19 07:15:27;;;;;;;;;0.50;0.50;;;;;;;;5100628;27;45401;-41
2023/07/19 07:17:52;;;;;;;;;1.50;1.00;;;;;;;;5100613;27;45335;-45
2023/07/19 07:20:18;;;;;;;;;1.00;1.00;;;;;;;;5100336;27;45275;-40
2023/07/19 07:22:43;;;;;;;;;2.00;2.00;;;;;;;;5100287;27;45203;-43
2023/07/19 07:25:09;;;;;;;;;2.50;0.75;;;;;;;;5099493;27;45503;-41
2023/07/19 07:27:34;;;;;;;;;2.50;0.75;;;;;;;;5100559;27;45271;-40
2023/07/19 07:29:59;;;;;;;;;1.00;1.00;;;;;;;;5100051;27;46021;-40
2023/07/19 07:32:24;;;;;;;;;3.00;2.00;;;;;;;;5099810;27;45397;-44
2023/07/19 07:34:50;;;;;;;;;0.25;0.25;;;;;;;;5100469;27;45339;-44
2023/07/19 07:37:15;;;;;;;;;1.00;1.00;;;;;;;;5100562;27;45309;-43
2023/07/19 07:39:40;;;;;;;;;2.75;0.00;;;;;;;;5100323;27;46343;-44
2023/07/19 07:42:05;;;;;;;;;1.75;1.50;;;;;;;;5081589;27;46071;-47
2023/07/19 07:44:31;;;;;;;;;0.00;0.00;;;;;;;;5100405;27;45435;-46
2023/07/19 07:46:56;;;;;;;;;2.25;1.00;;;;;;;;5100205;27;45279;-45
2023/07/19 07:49:21;;;;;;;;;1.75;1.75;;;;;;;;5099950;27;45356;-44
2023/07/19 07:51:46;;;;;;;;;0.50;0.00;;;;;;;;5099805;27;45321;-47
2023/07/19 07:54:11;;;;;;;;;1.00;1.00;;;;;;;;5099195;27;45483;-45
2023/07/19 07:56:37;;;;;;;;;0.00;0.00;;;;;;;;5100215;27;45316;-44
2023/07/19 07:59:02;;;;;;;;;0.75;0.75;;;;;;;;5099269;27;47053;-41
2023/07/19 08:01:27;;;;;;;;;0.50;0.00;;;;;;;;5099714;27;45338;-43
2023/07/19 08:03:53;;;;;;;;;1.75;0.00;;;;;;;;5099844;27;45333;-42
2023/07/19 08:06:19;;;;;;;;;2.00;2.00;;;;;;;;5099850;27;45380;-43
2023/07/19 08:08:44;;;;;;;;;2.40;2.40;;;;;;;;5099231;27;46428;-43
2023/07/19 08:11:09;;;;;;;;;3.75;3.75;;;;;;;;5099486;27;45468;-44
2023/07/19 08:13:35;;;;;;;;;3.00;1.50;;;;;;;;5099022;27;45402;-43
2023/07/19 08:16:00;;;;;;;;;4.50;4.50;;;;;;;;5099655;27;45364;-44
2023/07/19 08:18:26;;;;;;;;;2.00;2.00;;;;;;;;5098444;27;46452;-42
2023/07/19 08:20:52;;;;;;;;;1.75;1.50;;;;;;;;5098844;27;45287;-44
2023/07/19 08:23:17;;;;;;;;;2.60;0.60;;;;;;;;5098860;27;45472;-41
2023/07/19 08:25:42;;;;;;;;;1.00;0.75;;;;;;;;5098761;27;45448;-41
2023/07/19 08:28:07;;;;;;;;;2.00;1.00;;;;;;;;5098909;27;46187;-43
2023/07/19 08:30:32;;;;;;;;;3.50;1.50;;;;;;;;5099020;27;45519;-44
2023/07/19 08:32:57;;;;;;;;;1.50;1.50;;;;;;;;5098998;27;45365;-42
2023/07/19 08:35:23;;;;;;;;;1.00;1.00;;;;;;;;5099337;27;45395;-45
2023/07/19 08:37:48;;;;;;;;;4.00;2.00;;;;;;;;5099019;27;46261;-44
2023/07/19 08:40:14;;;;;;;;;2.00;1.25;;;;;;;;5099130;27;45600;-42
2023/07/19 08:42:40;;;;;;;;;1.80;1.80;;;;;;;;5099127;27;45429;-43
2023/07/19 08:45:07;;;;;;;;;1.00;1.00;;;;;;;;5099033;27;45437;-49
2023/07/19 08:47:37;;;;;;;;;2.20;2.20;;;;;;;;5098643;27;45388;-43
2023/07/19 08:50:06;;;;;;;;;2.60;1.20;;;;;;;;5098999;27;45428;-42
2023/07/19 08:52:34;;;;;;;;;1.40;1.40;;;;;;;;5099043;27;45382;-45
2023/07/19 08:54:59;;;;;;;;;0.80;0.80;;;;;;;;5098926;27;45211;-43
2023/07/19 08:57:25;;;;;;;;;3.00;3.00;;;;;;;;5098644;27;46141;-42
2023/07/19 08:59:50;;;;;;;;;1.00;0.50;;;;;;;;5098774;27;45228;-41
2023/07/19 09:02:15;;;;;;;;;2.00;1.00;;;;;;;;5098825;27;45291;-45
2023/07/19 09:05:00;;;;;;;;;2.50;1.00;;;;;;;;5080582;27;45541;-43
2023/07/19 09:07:25;;;;;;;;;0.80;0.80;;;;;;;;5098181;27;45435;-44
2023/07/19 09:09:54;;;;;;;;;2.75;2.00;;;;;;;;5098463;27;45548;-45
2023/07/19 09:12:19;;;;;;;;;2.80;1.80;;;;;;;;5098779;27;45516;-47
2023/07/19 09:14:45;;;;;;;;;2.00;2.00;;;;;;;;5098562;27;45354;-45
2023/07/19 09:17:10;;;;;;;;;1.00;1.00;;;;;;;;5098337;27;47164;-44
2023/07/19 09:19:36;;;;;;;;;1.25;1.25;;;;;;;;5098386;27;45389;-45
2023/07/19 09:22:03;;;;;;;;;3.00;3.00;;;;;;;;5098585;27;45381;-46
2023/07/19 09:24:28;;;;;;;;;3.00;2.00;;;;;;;;5097968;27;45426;-46
2023/07/19 09:26:56;;;;;;;;;1.50;1.50;;;;;;;;5097845;27;45299;-48
2023/07/19 09:29:21;;;;;;;;;3.00;3.00;;;;;;;;5097902;27;45263;-44
2023/07/19 09:31:54;;;;;;;;;3.00;1.75;;;;;;;;5097832;27;45289;-40
2023/07/19 09:34:20;;;;;;;;;0.80;0.80;;;;;;;;5098345;27;45524;-44
2023/07/19 09:36:46;;;;;;;;;1.80;1.80;;;;;;;;5097779;27;47020;-43
2023/07/19 09:39:11;;;;;;;;;1.00;1.00;;;;;;;;5097068;27;45263;-44
2023/07/19 09:41:38;;;;;;;;;1.00;1.00;;;;;;;;5098078;27;45224;-43
2023/07/19 09:44:09;;;;;;;;;2.60;1.40;;;;;;;;5098206;27;45384;-42
2023/07/19 09:46:35;;;;;;;;;2.00;1.00;;;;;;;;5097607;27;46419;-45
2023/07/19 09:49:00;;;;;;;;;1.00;1.00;;;;;;;;5097630;27;45189;-45
2023/07/19 09:51:26;;;;;;;;;0.50;0.00;;;;;;;;5097535;27;45305;-44
2023/07/19 09:53:51;;;;;;;;;0.00;0.00;;;;;;;;5098031;27;45408;-45
2023/07/19 09:56:17;;;;;;;;;1.00;1.00;;;;;;;;5097857;27;45880;-46
2023/07/19 09:58:42;;;;;;;;;3.00;1.00;;;;;;;;5097623;27;45353;-45
2023/07/19 10:01:08;;;;;;;;;0.00;0.00;;;;;;;;5096851;27;45370;-42
2023/07/19 10:03:36;;;;;;;;;0.50;0.50;;;;;;;;5097974;27;45392;-47
2023/07/19 10:06:02;;;;;;;;;2.60;1.00;;;;;;;;5097519;27;46323;-40
2023/07/19 10:08:27;;;;;;;;;0.00;0.00;;;;;;;;5097654;27;45309;-47
2023/07/19 10:10:57;;;;;;;;;1.25;1.25;;;;;;;;5097982;27;45283;-43
2023/07/19 10:13:27;;;;;;;;;1.60;1.60;;;;;;;;5097838;27;45254;-44
2023/07/19 10:15:53;;;;;;;;;3.00;1.60;;;;;;;;5097440;27;45360;-47
2023/07/19 10:18:19;;;;;;;;;0.25;0.25;;;;;;;;5097585;27;45397;-43
2023/07/19 10:20:58;;;;;;;;;2.25;1.00;;;;;;;;5097684;27;45233;-47
2023/07/19 10:23:23;;;;;;;;;1.60;1.60;;;;;;;;5097857;27;45419;-44
2023/07/19 10:25:48;;;;;;;;;2.25;2.25;;;;;;;;5097151;27;45406;-44
2023/07/19 10:28:24;;;;;;;;;3.50;3.00;;;;;;;;5097298;27;45464;-42
2023/07/19 10:30:50;;;;;;;;;3.00;2.60;;;;;;;;5097666;27;45380;-42
2023/07/19 10:33:19;;;;;;;;;2.80;2.40;;;;;;;;5097359;27;45312;-45
2023/07/19 10:35:44;;;;;;;;;1.80;1.80;;;;;;;;5097172;27;46414;-44
2023/07/19 10:38:16;;;;;;;;;5.00;2.00;;;;;;;;5097503;27;45390;-43
2023/07/19 10:40:46;;;;;;;;;1.00;1.00;;;;;;;;5097532;27;45310;-44
2023/07/19 10:43:11;;;;;;;;;3.60;1.00;;;;;;;;5099332;27;45221;-45
2023/07/19 10:45:37;;;;;;;;;1.00;1.00;;;;;;;;5100799;27;45373;-44
2023/07/19 10:48:03;;;;;;;;;2.00;2.00;;;;;;;;5100650;27;45446;-43
2023/07/19 10:50:28;;;;;;;;;2.60;2.60;;;;;;;;5100908;27;45317;-48
2023/07/19 10:52:54;;;;;;;;;4.00;3.00;;;;;;;;5101069;27;45274;-42
2023/07/19 10:55:19;;;;;;;;;2.00;2.00;;;;;;;;5100471;27;47233;-40
2023/07/19 10:57:45;;;;;;;;;2.00;2.00;;;;;;;;5100903;27;45421;-42
2023/07/19 11:00:12;;;;;;;;;2.60;1.80;;;;;;;;5100519;27;45361;-41
2023/07/19 11:02:38;;;;;;;;;1.60;0.80;;;;;;;;5100883;27;45374;-40
2023/07/19 11:05:05;;;;;;;;;2.80;0.80;;;;;;;;5100352;27;47385;-42
2023/07/19 11:07:31;;;;;;;;;1.80;1.40;;;;;;;;5081912;27;45528;-42
2023/07/19 11:09:56;;;;;;;;;1.20;1.20;;;;;;;;5100693;27;45228;-44
2023/07/19 11:12:22;;;;;;;;;1.00;1.00;;;;;;;;5100778;27;45350;-42
2023/07/19 11:14:54;;;;;;;;;2.00;2.00;;;;;;;;5100257;27;45978;-45
2023/07/19 11:17:26;;;;;;;;;1.20;1.20;;;;;;;;5100321;27;45181;-40
2023/07/19 11:19:51;;;;;;;;;3.20;1.00;;;;;;;;5100376;27;45431;-46
2023/07/19 11:22:20;;;;;;;;;2.50;2.50;;;;;;;;5100445;27;45306;-46
2023/07/19 11:24:46;;;;;;;;;3.00;1.40;;;;;;;;5099558;27;46583;-43
2023/07/19 11:27:12;;;;;;;;;3.00;3.00;;;;;;;;5100199;27;45310;-41
2023/07/19 11:29:37;;;;;;;;;4.00;3.75;;;;;;;;5099550;27;45857;-44
2023/07/19 11:32:12;;;;;;;;;4.75;1.75;;;;;;;;5099643;27;45544;-43
2023/07/19 11:34:43;;;;;;;;;1.80;1.80;;;;;;;;5099937;27;46152;-44
2023/07/19 11:37:15;;;;;;;;;2.80;2.00;;;;;;;;5099990;27;45247;-45
2023/07/19 11:39:40;;;;;;;;;6.80;2.60;;;;;;;;5100322;27;45388;-45
2023/07/19 11:42:05;;;;;;;;;2.50;1.75;;;;;;;;5100171;27;45476;-46
2023/07/19 11:44:31;;;;;;;;;2.25;1.25;;;;;;;;5099794;27;46149;-44
2023/07/19 11:46:57;;;;;;;;;3.25;2.00;;;;;;;;5099669;27;45486;-43
2023/07/19 11:49:23;;;;;;;;;2.80;2.20;;;;;;;;5099106;27;45438;-42
2023/07/19 11:51:49;;;;;;;;;1.75;1.75;;;;;;;;5096364;27;45298;-44
2023/07/19 11:54:16;;;;;;;;;1.00;1.00;;;;;;;;5085732;27;45433;-46
2023/07/19 11:56:42;;;;;;;;;1.80;1.80;;;;;;;;5096778;27;45373;-44
2023/07/19 11:59:07;;;;;;;;;4.00;2.00;;;;;;;;5096885;27;45394;-42
2023/07/19 12:01:32;;;;;;;;;2.25;2.25;;;;;;;;5097489;27;45383;-43
2023/07/19 12:04:01;;;;;;;;;2.00;2.00;;;;;;;;5096384;27;45405;-41
2023/07/19 12:06:27;;;;;;;;;2.40;2.00;;;;;;;;5096432;27;45431;-44
2023/07/19 12:08:52;;;;;;;;;3.00;1.25;;;;;;;;5096948;27;45447;-46
2023/07/19 12:11:17;;;;;;;;;1.00;1.00;;;;;;;;5096661;27;45463;-43
2023/07/19 12:13:43;;;;;;;;;1.75;1.75;;;;;;;;5096463;27;45574;-44
2023/07/19 12:16:08;;;;;;;;;0.75;0.75;;;;;;;;5097125;27;45397;-49
2023/07/19 12:18:33;;;;;;;;;2.25;2.25;;;;;;;;5097174;27;45484;-42
2023/07/19 12:20:59;;;;;;;;;2.75;1.75;;;;;;;;5097064;27;45575;-46
2023/07/19 12:23:24;;;;;;;;;2.00;2.00;;;;;;;;5096451;27;47484;-42
2023/07/19 12:25:50;;;;;;;;;2.50;2.50;;;;;;;;5096292;27;45535;-44
2023/07/19 12:28:16;;;;;;;;;3.75;2.00;;;;;;;;5096492;27;45326;-45
2023/07/19 12:30:42;;;;;;;;;3.40;2.60;;;;;;;;5095675;27;45517;-44
2023/07/19 12:33:07;;;;;;;;;5.00;2.00;;;;;;;;5080770;27;45436;-45
2023/07/19 12:35:33;;;;;;;;;1.75;1.75;;;;;;;;5076292;28;45386;-48
2023/07/19 12:37:58;;;;;;;;;1.75;1.75;;;;;;;;5075871;28;45415;-44
2023/07/19 12:40:23;;;;;;;;;3.00;2.00;;;;;;;;5076463;28;45261;-47
2023/07/19 12:42:48;;;;;;;;;3.00;2.00;;;;;;;;5074938;28;46538;-44
2023/07/19 12:45:14;;;;;;;;;4.00;2.75;;;;;;;;5075536;28;45323;-46
2023/07/19 12:47:39;;;;;;;;;1.00;1.00;;;;;;;;5075915;28;45441;-46
2023/07/19 12:50:05;;;;;;;;;2.00;2.00;;;;;;;;5076162;28;45683;-41
2023/07/19 12:52:30;;;;;;;;;2.50;2.50;;;;;;;;5074186;28;48836;-46
2023/07/19 12:54:58;;;;;;;;;1.00;1.00;;;;;;;;5075516;28;45573;-44
2023/07/19 12:57:23;;;;;;;;;2.40;2.40;;;;;;;;5075517;28;45343;-42
2023/07/19 12:59:49;;;;;;;;;4.00;2.25;;;;;;;;5075453;28;45387;-46
2023/07/19 13:02:14;;;;;;;;;3.00;2.00;;;;;;;;5075399;28;45469;-46
2023/07/19 13:04:39;;;;;;;;;1.50;1.50;;;;;;;;5076069;28;45381;-45
2023/07/19 13:07:05;;;;;;;;;3.00;2.25;;;;;;;;5078483;28;45173;-42
2023/07/19 13:09:30;;;;;;;;;1.20;1.20;;;;;;;;5078622;28;45518;-44
2023/07/19 13:11:56;;;;;;;;;2.00;2.00;;;;;;;;5078095;28;46196;-43
2023/07/19 13:14:21;;;;;;;;;3.00;2.00;;;;;;;;5077947;28;45416;-44
2023/07/19 13:16:46;;;;;;;;;2.50;1.75;;;;;;;;5078058;28;45379;-43
2023/07/19 13:19:13;;;;;;;;;4.25;2.50;;;;;;;;5078354;28;45303;-46
2023/07/19 13:21:38;;;;;;;;;3.00;3.00;;;;;;;;5077840;28;47265;-43
2023/07/19 13:24:03;;;;;;;;;4.50;4.50;;;;;;;;5077973;28;45228;-43
2023/07/19 13:26:28;;;;;;;;;3.00;3.00;;;;;;;;5077870;28;45225;-44
2023/07/19 13:28:54;;;;;;;;;4.00;4.00;;;;;;;;5078180;28;45282;-47
2023/07/19 13:31:19;;;;;;;;;4.25;3.50;;;;;;;;5077045;27;46307;-40
2023/07/19 13:33:45;;;;;;;;;3.25;2.75;;;;;;;;5098020;27;45399;-41
2023/07/19 13:36:10;;;;;;;;;4.00;3.00;;;;;;;;5098291;27;45398;-45
2023/07/19 13:38:35;;;;;;;;;2.50;2.50;;;;;;;;5098250;27;45818;-45
2023/07/19 13:41:01;;;;;;;;;4.00;2.75;;;;;;;;5097141;27;45360;-46
2023/07/19 13:43:26;;;;;;;;;3.00;3.00;;;;;;;;5097924;27;45293;-52
2023/07/19 13:45:51;;;;;;;;;4.25;4.25;;;;;;;;5097950;27;45301;-44
2023/07/19 13:48:16;;;;;;;;;2.75;2.75;;;;;;;;5098145;27;45357;-45
2023/07/19 13:50:41;;;;;;;;;5.75;2.75;;;;;;;;5097811;27;46151;-43
2023/07/19 13:53:07;;;;;;;;;2.00;2.00;;;;;;;;5080122;27;46315;-46
2023/07/19 13:55:32;;;;;;;;;2.25;2.00;;;;;;;;5094960;27;45322;-44
2023/07/19 13:57:58;;;;;;;;;2.25;2.25;;;;;;;;5092052;27;45335;-48
2023/07/19 14:00:24;;;;;;;;;2.00;2.00;;;;;;;;5094485;27;45685;-47
2023/07/19 14:02:49;;;;;;;;;4.25;3.00;;;;;;;;5094748;27;45329;-46
2023/07/19 14:05:15;;;;;;;;;3.50;1.75;;;;;;;;5094092;27;45449;-46
2023/07/19 14:07:40;;;;;;;;;3.50;2.00;;;;;;;;5094955;27;45753;-42
2023/07/19 14:10:06;;;;;;;;;1.75;1.50;;;;;;;;5094676;27;45639;-40
2023/07/19 14:12:31;;;;;;;;;3.50;2.25;;;;;;;;5094628;27;45445;-45
2023/07/19 14:14:57;;;;;;;;;3.00;1.25;;;;;;;;5095001;27;45492;-42
2023/07/19 14:17:26;;;;;;;;;3.00;2.00;;;;;;;;5093516;27;45264;-47
2023/07/19 14:19:51;;;;;;;;;2.20;1.40;;;;;;;;5094473;27;46139;-40
2023/07/19 14:22:17;;;;;;;;;1.25;1.25;;;;;;;;5094937;27;45240;-45
2023/07/19 14:24:43;;;;;;;;;2.60;2.60;;;;;;;;5094350;27;45436;-46
2023/07/19 14:27:09;;;;;;;;;3.25;3.25;;;;;;;;5094487;27;45293;-47
2023/07/19 14:29:34;;;;;;;;;2.75;1.00;;;;;;;;5094418;27;46033;-39
2023/07/19 14:32:00;;;;;;;;;1.75;1.00;;;;;;;;5094553;27;45367;-51
2023/07/19 14:34:25;;;;;;;;;2.00;2.00;;;;;;;;5094743;27;45376;-40